sensor_id;sensor_type;location;lat;lon;timestamp;P1;durP1;ratioP1;P2;durP2;ratioP2
10557;SDS011;5327;47.238;-2.304;2023-04-24T00:02:18;7.43;;;2.70;;
10557;SDS011;5327;47.238;-2.304;2023-04-24T00:04:44;12.00;;;3.20;;
10557;SDS011;5327;47.238;-2.304;2023-04-24T00:07:11;11.37;;;3.63;;
10557;SDS011;5327;47.238;-2.304;2023-04-24T00:09:38;14.73;;;3.20;;
10557;SDS011;5327;47.238;-2.304;2023-04-24T00:12:04;12.03;;;2.90;;
10557;SDS011;5327;47.238;-2.304;2023-04-24T00:14:30;12.43;;;4.00;;
10557;SDS011;5327;47.238;-2.304;2023-04-24T00:16:56;12.60;;;3.27;;
10557;SDS011;5327;47.238;-2.304;2023-04-24T00:19:22;21.50;;;5.53;;
10557;SDS011;5327;47.238;-2.304;2023-04-24T00:21:48;8.17;;;2.77;;
10557;SDS011;5327;47.238;-2.304;2023-04-24T00:24:15;14.87;;;4.07;;
10557;SDS011;5327;47.238;-2.304;2023-04-24T00:26:42;6.90;;;2.13;;
10557;SDS011;5327;47.238;-2.304;2023-04-24T00:29:08;8.00;;;4.13;;
10557;SDS011;5327;47.238;-2.304;2023-04-24T00:31:34;12.33;;;3.27;;
10557;SDS011;5327;47.238;-2.304;2023-04-24T00:34:00;9.40;;;2.40;;
10557;SDS011;5327;47.238;-2.304;2023-04-24T00:36:27;17.90;;;3.70;;
10557;SDS011;5327;47.238;-2.304;2023-04-24T00:38:53;12.20;;;3.10;;
10557;SDS011;5327;47.238;-2.304;2023-04-24T00:41:19;14.57;;;3.33;;
10557;SDS011;5327;47.238;-2.304;2023-04-24T00:43:46;7.50;;;3.00;;
10557;SDS011;5327;47.238;-2.304;2023-04-24T00:46:12;8.57;;;3.33;;
10557;SDS011;5327;47.238;-2.304;2023-04-24T00:48:41;8.63;;;2.57;;
10557;SDS011;5327;47.238;-2.304;2023-04-24T00:51:07;11.87;;;2.80;;
10557;SDS011;5327;47.238;-2.304;2023-04-24T00:53:34;15.73;;;3.77;;
10557;SDS011;5327;47.238;-2.304;2023-04-24T00:56:00;17.00;;;4.80;;
10557;SDS011;5327;47.238;-2.304;2023-04-24T00:58:26;13.17;;;4.47;;
10557;SDS011;5327;47.238;-2.304;2023-04-24T01:00:53;13.50;;;3.70;;
10557;SDS011;5327;47.238;-2.304;2023-04-24T01:03:21;13.80;;;3.70;;
10557;SDS011;5327;47.238;-2.304;2023-04-24T01:05:47;20.37;;;3.30;;
10557;SDS011;5327;47.238;-2.304;2023-04-24T01:08:14;8.70;;;3.40;;
10557;SDS011;5327;47.238;-2.304;2023-04-24T01:10:40;13.00;;;4.10;;
10557;SDS011;5327;47.238;-2.304;2023-04-24T01:13:07;14.83;;;3.30;;
10557;SDS011;5327;47.238;-2.304;2023-04-24T01:15:34;6.97;;;2.77;;
10557;SDS011;5327;47.238;-2.304;2023-04-24T01:18:00;14.13;;;4.40;;
10557;SDS011;5327;47.238;-2.304;2023-04-24T01:20:26;17.30;;;5.83;;
10557;SDS011;5327;47.238;-2.304;2023-04-24T01:22:54;12.87;;;5.43;;
10557;SDS011;5327;47.238;-2.304;2023-04-24T01:25:21;13.37;;;3.87;;
10557;SDS011;5327;47.238;-2.304;2023-04-24T01:27:47;12.60;;;4.40;;
10557;SDS011;5327;47.238;-2.304;2023-04-24T01:30:13;11.80;;;3.43;;
10557;SDS011;5327;47.238;-2.304;2023-04-24T01:32:40;8.73;;;3.33;;
10557;SDS011;5327;47.238;-2.304;2023-04-24T01:35:06;5.00;;;2.20;;
10557;SDS011;5327;47.238;-2.304;2023-04-24T01:37:33;12.43;;;4.37;;
10557;SDS011;5327;47.238;-2.304;2023-04-24T01:39:59;13.63;;;5.20;;
10557;SDS011;5327;47.238;-2.304;2023-04-24T01:42:25;13.53;;;3.77;;
10557;SDS011;5327;47.238;-2.304;2023-04-24T01:44:51;11.80;;;4.30;;
10557;SDS011;5327;47.238;-2.304;2023-04-24T01:47:18;10.50;;;4.17;;
10557;SDS011;5327;47.238;-2.304;2023-04-24T01:49:44;12.53;;;3.40;;
10557;SDS011;5327;47.238;-2.304;2023-04-24T01:52:11;13.40;;;3.70;;
10557;SDS011;5327;47.238;-2.304;2023-04-24T01:54:37;11.80;;;3.80;;
10557;SDS011;5327;47.238;-2.304;2023-04-24T01:57:03;12.10;;;4.27;;
10557;SDS011;5327;47.238;-2.304;2023-04-24T01:59:29;14.43;;;3.83;;
10557;SDS011;5327;47.238;-2.304;2023-04-24T02:01:56;10.83;;;3.73;;
10557;SDS011;5327;47.238;-2.304;2023-04-24T02:04:22;10.40;;;4.40;;
10557;SDS011;5327;47.238;-2.304;2023-04-24T02:06:48;15.77;;;3.93;;
10557;SDS011;5327;47.238;-2.304;2023-04-24T02:09:14;11.13;;;4.53;;
10557;SDS011;5327;47.238;-2.304;2023-04-24T02:11:40;14.53;;;5.30;;
10557;SDS011;5327;47.238;-2.304;2023-04-24T02:14:06;19.57;;;5.17;;
10557;SDS011;5327;47.238;-2.304;2023-04-24T02:16:32;16.30;;;4.00;;
10557;SDS011;5327;47.238;-2.304;2023-04-24T02:18:58;13.33;;;3.90;;
10557;SDS011;5327;47.238;-2.304;2023-04-24T02:21:24;14.97;;;4.60;;
10557;SDS011;5327;47.238;-2.304;2023-04-24T02:23:52;19.30;;;3.93;;
10557;SDS011;5327;47.238;-2.304;2023-04-24T02:26:18;14.30;;;5.33;;
10557;SDS011;5327;47.238;-2.304;2023-04-24T02:28:44;18.47;;;5.90;;
10557;SDS011;5327;47.238;-2.304;2023-04-24T02:31:10;23.23;;;4.13;;
10557;SDS011;5327;47.238;-2.304;2023-04-24T02:33:36;15.43;;;4.33;;
10557;SDS011;5327;47.238;-2.304;2023-04-24T02:36:02;20.23;;;5.07;;
10557;SDS011;5327;47.238;-2.304;2023-04-24T02:38:28;23.47;;;5.67;;
10557;SDS011;5327;47.238;-2.304;2023-04-24T02:40:55;15.40;;;3.63;;
10557;SDS011;5327;47.238;-2.304;2023-04-24T02:43:21;18.37;;;5.33;;
10557;SDS011;5327;47.238;-2.304;2023-04-24T02:45:47;26.00;;;6.70;;
10557;SDS011;5327;47.238;-2.304;2023-04-24T02:48:13;18.83;;;6.70;;
10557;SDS011;5327;47.238;-2.304;2023-04-24T02:50:40;22.60;;;5.97;;
10557;SDS011;5327;47.238;-2.304;2023-04-24T02:53:06;16.23;;;6.93;;
10557;SDS011;5327;47.238;-2.304;2023-04-24T02:55:32;16.83;;;6.20;;
10557;SDS011;5327;47.238;-2.304;2023-04-24T02:57:58;24.23;;;6.90;;
10557;SDS011;5327;47.238;-2.304;2023-04-24T03:00:24;23.10;;;7.30;;
10557;SDS011;5327;47.238;-2.304;2023-04-24T03:02:51;18.20;;;5.13;;
10557;SDS011;5327;47.238;-2.304;2023-04-24T03:05:17;19.63;;;4.97;;
10557;SDS011;5327;47.238;-2.304;2023-04-24T03:07:43;24.40;;;6.93;;
10557;SDS011;5327;47.238;-2.304;2023-04-24T03:10:10;19.53;;;6.37;;
10557;SDS011;5327;47.238;-2.304;2023-04-24T03:12:36;18.13;;;5.17;;
10557;SDS011;5327;47.238;-2.304;2023-04-24T03:15:02;23.70;;;6.93;;
10557;SDS011;5327;47.238;-2.304;2023-04-24T03:17:28;18.83;;;5.83;;
10557;SDS011;5327;47.238;-2.304;2023-04-24T03:19:55;14.30;;;5.30;;
10557;SDS011;5327;47.238;-2.304;2023-04-24T03:22:21;17.00;;;5.47;;
10557;SDS011;5327;47.238;-2.304;2023-04-24T03:24:47;15.40;;;5.80;;
10557;SDS011;5327;47.238;-2.304;2023-04-24T03:27:13;12.67;;;5.23;;
10557;SDS011;5327;47.238;-2.304;2023-04-24T03:29:39;21.70;;;6.10;;
10557;SDS011;5327;47.238;-2.304;2023-04-24T03:32:05;18.90;;;4.80;;
10557;SDS011;5327;47.238;-2.304;2023-04-24T03:34:31;24.60;;;9.27;;
10557;SDS011;5327;47.238;-2.304;2023-04-24T03:36:57;28.73;;;7.00;;
10557;SDS011;5327;47.238;-2.304;2023-04-24T03:39:23;20.07;;;5.77;;
10557;SDS011;5327;47.238;-2.304;2023-04-24T03:41:50;18.57;;;6.33;;
10557;SDS011;5327;47.238;-2.304;2023-04-24T03:44:16;19.80;;;5.57;;
10557;SDS011;5327;47.238;-2.304;2023-04-24T03:46:42;12.83;;;4.13;;
10557;SDS011;5327;47.238;-2.304;2023-04-24T03:49:08;23.23;;;8.30;;
10557;SDS011;5327;47.238;-2.304;2023-04-24T03:51:34;37.37;;;8.40;;
10557;SDS011;5327;47.238;-2.304;2023-04-24T03:54:00;25.70;;;6.50;;
10557;SDS011;5327;47.238;-2.304;2023-04-24T03:56:26;15.20;;;5.40;;
10557;SDS011;5327;47.238;-2.304;2023-04-24T03:58:52;17.73;;;5.33;;
10557;SDS011;5327;47.238;-2.304;2023-04-24T04:01:18;18.47;;;5.63;;
10557;SDS011;5327;47.238;-2.304;2023-04-24T04:03:45;17.97;;;4.87;;
10557;SDS011;5327;47.238;-2.304;2023-04-24T04:06:12;16.37;;;6.20;;
10557;SDS011;5327;47.238;-2.304;2023-04-24T04:08:38;21.93;;;6.47;;
10557;SDS011;5327;47.238;-2.304;2023-04-24T04:11:04;25.30;;;6.17;;
10557;SDS011;5327;47.238;-2.304;2023-04-24T04:13:30;21.47;;;5.67;;
10557;SDS011;5327;47.238;-2.304;2023-04-24T04:15:56;21.10;;;6.43;;
10557;SDS011;5327;47.238;-2.304;2023-04-24T04:18:22;31.87;;;6.13;;
10557;SDS011;5327;47.238;-2.304;2023-04-24T04:20:48;20.53;;;7.10;;
10557;SDS011;5327;47.238;-2.304;2023-04-24T04:23:14;35.20;;;6.40;;
10557;SDS011;5327;47.238;-2.304;2023-04-24T04:25:40;12.80;;;5.10;;
10557;SDS011;5327;47.238;-2.304;2023-04-24T04:28:06;23.53;;;6.47;;
10557;SDS011;5327;47.238;-2.304;2023-04-24T04:30:32;24.17;;;8.50;;
10557;SDS011;5327;47.238;-2.304;2023-04-24T04:32:58;18.60;;;6.43;;
10557;SDS011;5327;47.238;-2.304;2023-04-24T04:35:25;28.17;;;6.93;;
10557;SDS011;5327;47.238;-2.304;2023-04-24T04:37:51;26.33;;;7.47;;
10557;SDS011;5327;47.238;-2.304;2023-04-24T04:40:17;20.70;;;4.80;;
10557;SDS011;5327;47.238;-2.304;2023-04-24T04:42:43;30.97;;;5.70;;
10557;SDS011;5327;47.238;-2.304;2023-04-24T04:45:11;25.83;;;7.17;;
10557;SDS011;5327;47.238;-2.304;2023-04-24T04:47:37;14.00;;;4.83;;
10557;SDS011;5327;47.238;-2.304;2023-04-24T04:50:04;21.70;;;8.30;;
10557;SDS011;5327;47.238;-2.304;2023-04-24T04:52:30;30.40;;;7.87;;
10557;SDS011;5327;47.238;-2.304;2023-04-24T04:54:56;33.50;;;6.60;;
10557;SDS011;5327;47.238;-2.304;2023-04-24T04:57:22;25.60;;;5.67;;
10557;SDS011;5327;47.238;-2.304;2023-04-24T04:59:48;18.67;;;5.60;;
10557;SDS011;5327;47.238;-2.304;2023-04-24T05:02:14;17.67;;;6.57;;
10557;SDS011;5327;47.238;-2.304;2023-04-24T05:04:40;23.03;;;5.40;;
10557;SDS011;5327;47.238;-2.304;2023-04-24T05:07:06;29.30;;;6.33;;
10557;SDS011;5327;47.238;-2.304;2023-04-24T05:09:32;36.00;;;7.27;;
10557;SDS011;5327;47.238;-2.304;2023-04-24T05:11:58;22.97;;;6.57;;
10557;SDS011;5327;47.238;-2.304;2023-04-24T05:14:25;14.67;;;6.23;;
10557;SDS011;5327;47.238;-2.304;2023-04-24T05:16:51;14.80;;;5.20;;
10557;SDS011;5327;47.238;-2.304;2023-04-24T05:19:17;16.60;;;4.43;;
10557;SDS011;5327;47.238;-2.304;2023-04-24T05:21:43;15.03;;;5.03;;
10557;SDS011;5327;47.238;-2.304;2023-04-24T05:24:10;26.50;;;6.00;;
10557;SDS011;5327;47.238;-2.304;2023-04-24T05:26:36;23.37;;;6.73;;
10557;SDS011;5327;47.238;-2.304;2023-04-24T05:29:02;15.50;;;6.03;;
10557;SDS011;5327;47.238;-2.304;2023-04-24T05:31:29;28.80;;;6.90;;
10557;SDS011;5327;47.238;-2.304;2023-04-24T05:33:55;21.43;;;5.57;;
10557;SDS011;5327;47.238;-2.304;2023-04-24T05:36:21;24.20;;;5.97;;
10557;SDS011;5327;47.238;-2.304;2023-04-24T05:38:47;24.80;;;6.70;;
10557;SDS011;5327;47.238;-2.304;2023-04-24T05:41:13;32.33;;;6.97;;
10557;SDS011;5327;47.238;-2.304;2023-04-24T05:43:40;20.80;;;6.30;;
10557;SDS011;5327;47.238;-2.304;2023-04-24T05:46:06;20.27;;;7.20;;
10557;SDS011;5327;47.238;-2.304;2023-04-24T05:48:32;19.43;;;6.27;;
10557;SDS011;5327;47.238;-2.304;2023-04-24T05:50:58;22.73;;;6.37;;
10557;SDS011;5327;47.238;-2.304;2023-04-24T05:53:24;25.10;;;5.93;;
10557;SDS011;5327;47.238;-2.304;2023-04-24T05:55:50;19.17;;;5.80;;
10557;SDS011;5327;47.238;-2.304;2023-04-24T05:58:16;30.70;;;8.43;;
10557;SDS011;5327;47.238;-2.304;2023-04-24T06:00:42;26.37;;;8.17;;
10557;SDS011;5327;47.238;-2.304;2023-04-24T06:03:08;26.23;;;6.80;;
10557;SDS011;5327;47.238;-2.304;2023-04-24T06:05:34;30.97;;;8.07;;
10557;SDS011;5327;47.238;-2.304;2023-04-24T06:08:00;32.87;;;7.17;;
10557;SDS011;5327;47.238;-2.304;2023-04-24T06:10:26;30.90;;;7.20;;
10557;SDS011;5327;47.238;-2.304;2023-04-24T06:12:52;26.73;;;6.97;;
10557;SDS011;5327;47.238;-2.304;2023-04-24T06:15:21;21.57;;;7.00;;
10557;SDS011;5327;47.238;-2.304;2023-04-24T06:17:47;26.93;;;7.60;;
10557;SDS011;5327;47.238;-2.304;2023-04-24T06:20:13;28.47;;;8.23;;
10557;SDS011;5327;47.238;-2.304;2023-04-24T06:22:39;34.93;;;7.70;;
10557;SDS011;5327;47.238;-2.304;2023-04-24T06:25:05;20.90;;;7.00;;
10557;SDS011;5327;47.238;-2.304;2023-04-24T06:27:32;21.83;;;6.00;;
10557;SDS011;5327;47.238;-2.304;2023-04-24T06:29:58;19.60;;;5.63;;
10557;SDS011;5327;47.238;-2.304;2023-04-24T06:32:24;16.73;;;6.00;;
10557;SDS011;5327;47.238;-2.304;2023-04-24T06:34:51;16.27;;;5.90;;
10557;SDS011;5327;47.238;-2.304;2023-04-24T06:37:18;23.07;;;6.50;;
10557;SDS011;5327;47.238;-2.304;2023-04-24T06:39:44;17.27;;;5.07;;
10557;SDS011;5327;47.238;-2.304;2023-04-24T06:42:10;17.73;;;5.43;;
10557;SDS011;5327;47.238;-2.304;2023-04-24T06:44:36;14.00;;;5.53;;
10557;SDS011;5327;47.238;-2.304;2023-04-24T06:47:14;17.10;;;5.67;;
10557;SDS011;5327;47.238;-2.304;2023-04-24T06:49:41;23.90;;;6.23;;
10557;SDS011;5327;47.238;-2.304;2023-04-24T06:52:07;28.63;;;8.10;;
10557;SDS011;5327;47.238;-2.304;2023-04-24T06:54:33;21.67;;;7.20;;
10557;SDS011;5327;47.238;-2.304;2023-04-24T06:56:59;15.80;;;5.40;;
10557;SDS011;5327;47.238;-2.304;2023-04-24T06:59:26;16.70;;;4.60;;
10557;SDS011;5327;47.238;-2.304;2023-04-24T07:01:52;14.23;;;4.23;;
10557;SDS011;5327;47.238;-2.304;2023-04-24T07:04:19;13.13;;;3.90;;
10557;SDS011;5327;47.238;-2.304;2023-04-24T07:06:45;17.10;;;4.30;;
10557;SDS011;5327;47.238;-2.304;2023-04-24T07:09:14;16.90;;;4.50;;
10557;SDS011;5327;47.238;-2.304;2023-04-24T07:11:41;14.90;;;4.63;;
10557;SDS011;5327;47.238;-2.304;2023-04-24T07:14:07;14.37;;;4.90;;
10557;SDS011;5327;47.238;-2.304;2023-04-24T07:16:33;17.03;;;5.10;;
10557;SDS011;5327;47.238;-2.304;2023-04-24T07:18:59;13.17;;;4.13;;
10557;SDS011;5327;47.238;-2.304;2023-04-24T07:21:26;19.80;;;4.37;;
10557;SDS011;5327;47.238;-2.304;2023-04-24T07:23:52;25.33;;;5.00;;
10557;SDS011;5327;47.238;-2.304;2023-04-24T07:26:19;40.67;;;7.77;;
10557;SDS011;5327;47.238;-2.304;2023-04-24T07:28:45;13.70;;;4.20;;
10557;SDS011;5327;47.238;-2.304;2023-04-24T07:31:12;13.07;;;4.20;;
10557;SDS011;5327;47.238;-2.304;2023-04-24T07:33:38;20.73;;;6.70;;
10557;SDS011;5327;47.238;-2.304;2023-04-24T07:36:04;23.07;;;5.03;;
10557;SDS011;5327;47.238;-2.304;2023-04-24T07:38:30;16.73;;;3.23;;
10557;SDS011;5327;47.238;-2.304;2023-04-24T07:40:56;11.43;;;3.70;;
10557;SDS011;5327;47.238;-2.304;2023-04-24T07:43:22;18.00;;;3.43;;
10557;SDS011;5327;47.238;-2.304;2023-04-24T07:45:49;11.90;;;2.60;;
10557;SDS011;5327;47.238;-2.304;2023-04-24T07:48:15;14.53;;;3.80;;
10557;SDS011;5327;47.238;-2.304;2023-04-24T07:50:42;18.10;;;4.30;;
10557;SDS011;5327;47.238;-2.304;2023-04-24T07:53:09;14.30;;;4.30;;
10557;SDS011;5327;47.238;-2.304;2023-04-24T07:55:35;10.13;;;3.57;;
10557;SDS011;5327;47.238;-2.304;2023-04-24T07:58:01;22.13;;;5.43;;
10557;SDS011;5327;47.238;-2.304;2023-04-24T08:00:27;20.40;;;4.20;;
10557;SDS011;5327;47.238;-2.304;2023-04-24T08:02:54;12.50;;;4.33;;
10557;SDS011;5327;47.238;-2.304;2023-04-24T08:05:20;17.60;;;3.43;;
10557;SDS011;5327;47.238;-2.304;2023-04-24T08:07:46;13.90;;;4.40;;
10557;SDS011;5327;47.238;-2.304;2023-04-24T08:10:13;13.70;;;3.90;;
10557;SDS011;5327;47.238;-2.304;2023-04-24T08:12:40;20.10;;;5.17;;
10557;SDS011;5327;47.238;-2.304;2023-04-24T08:15:06;14.43;;;4.73;;
10557;SDS011;5327;47.238;-2.304;2023-04-24T08:17:33;20.13;;;6.03;;
10557;SDS011;5327;47.238;-2.304;2023-04-24T08:19:59;13.40;;;3.47;;
10557;SDS011;5327;47.238;-2.304;2023-04-24T08:22:29;18.17;;;4.60;;
10557;SDS011;5327;47.238;-2.304;2023-04-24T08:24:55;13.07;;;4.00;;
10557;SDS011;5327;47.238;-2.304;2023-04-24T08:27:22;15.30;;;3.70;;
10557;SDS011;5327;47.238;-2.304;2023-04-24T08:29:48;16.90;;;4.70;;
10557;SDS011;5327;47.238;-2.304;2023-04-24T08:32:14;11.90;;;4.20;;
10557;SDS011;5327;47.238;-2.304;2023-04-24T08:34:40;12.90;;;3.60;;
10557;SDS011;5327;47.238;-2.304;2023-04-24T08:37:06;19.60;;;5.13;;
10557;SDS011;5327;47.238;-2.304;2023-04-24T08:39:32;17.03;;;4.50;;
10557;SDS011;5327;47.238;-2.304;2023-04-24T08:41:58;12.30;;;5.57;;
10557;SDS011;5327;47.238;-2.304;2023-04-24T08:44:32;19.37;;;5.07;;
10557;SDS011;5327;47.238;-2.304;2023-04-24T08:46:58;11.80;;;3.37;;
10557;SDS011;5327;47.238;-2.304;2023-04-24T08:49:24;20.67;;;4.10;;
10557;SDS011;5327;47.238;-2.304;2023-04-24T08:51:51;24.70;;;5.00;;
10557;SDS011;5327;47.238;-2.304;2023-04-24T08:54:18;17.97;;;4.40;;
10557;SDS011;5327;47.238;-2.304;2023-04-24T08:56:44;18.33;;;5.13;;
10557;SDS011;5327;47.238;-2.304;2023-04-24T08:59:10;30.23;;;4.53;;
10557;SDS011;5327;47.238;-2.304;2023-04-24T09:01:37;20.63;;;4.60;;
10557;SDS011;5327;47.238;-2.304;2023-04-24T09:04:04;18.67;;;4.53;;
10557;SDS011;5327;47.238;-2.304;2023-04-24T09:06:32;16.27;;;4.80;;
10557;SDS011;5327;47.238;-2.304;2023-04-24T09:09:00;21.37;;;5.97;;
10557;SDS011;5327;47.238;-2.304;2023-04-24T09:11:26;19.57;;;4.70;;
10557;SDS011;5327;47.238;-2.304;2023-04-24T09:13:53;18.03;;;5.60;;
10557;SDS011;5327;47.238;-2.304;2023-04-24T09:16:20;15.43;;;4.80;;
